sensor_id;sensor_type;location;lat;lon;timestamp;P1;durP1;ratioP1;P2;durP2;ratioP2
70247;SDS011;57641;51.416;5.506;2022-12-11T00:01:22;67.93;;;19.80;;
70247;SDS011;57641;51.416;5.506;2022-12-11T00:03:48;72.15;;;20.52;;
70247;SDS011;57641;51.416;5.506;2022-12-11T00:06:18;66.28;;;18.50;;
70247;SDS011;57641;51.416;5.506;2022-12-11T00:08:46;77.03;;;19.13;;
70247;SDS011;57641;51.416;5.506;2022-12-11T00:11:13;69.50;;;21.00;;
70247;SDS011;57641;51.416;5.506;2022-12-11T00:13:40;67.95;;;19.50;;
70247;SDS011;57641;51.416;5.506;2022-12-11T00:16:07;65.63;;;19.35;;
70247;SDS011;57641;51.416;5.506;2022-12-11T00:18:33;74.50;;;21.55;;
70247;SDS011;57641;51.416;5.506;2022-12-11T00:21:00;66.55;;;19.48;;
70247;SDS011;57641;51.416;5.506;2022-12-11T00:23:27;58.20;;;17.73;;
70247;SDS011;57641;51.416;5.506;2022-12-11T00:25:53;62.30;;;18.92;;
70247;SDS011;57641;51.416;5.506;2022-12-11T00:28:19;63.20;;;19.40;;
70247;SDS011;57641;51.416;5.506;2022-12-11T00:30:45;67.05;;;20.65;;
70247;SDS011;57641;51.416;5.506;2022-12-11T00:33:14;65.20;;;18.73;;
70247;SDS011;57641;51.416;5.506;2022-12-11T00:35:50;66.82;;;18.42;;
70247;SDS011;57641;51.416;5.506;2022-12-11T00:38:18;60.03;;;18.73;;
70247;SDS011;57641;51.416;5.506;2022-12-11T00:40:45;65.35;;;19.48;;
70247;SDS011;57641;51.416;5.506;2022-12-11T00:43:14;57.55;;;17.65;;
70247;SDS011;57641;51.416;5.506;2022-12-11T00:45:41;63.17;;;19.50;;
70247;SDS011;57641;51.416;5.506;2022-12-11T00:48:10;55.25;;;17.83;;
70247;SDS011;57641;51.416;5.506;2022-12-11T00:50:37;61.45;;;19.27;;
70247;SDS011;57641;51.416;5.506;2022-12-11T00:53:04;60.95;;;18.55;;
70247;SDS011;57641;51.416;5.506;2022-12-11T00:55:31;60.85;;;18.15;;
70247;SDS011;57641;51.416;5.506;2022-12-11T00:58:01;51.65;;;17.58;;
70247;SDS011;57641;51.416;5.506;2022-12-11T01:00:27;64.47;;;18.25;;
70247;SDS011;57641;51.416;5.506;2022-12-11T01:02:52;63.38;;;17.80;;
70247;SDS011;57641;51.416;5.506;2022-12-11T01:05:18;55.85;;;16.38;;
70247;SDS011;57641;51.416;5.506;2022-12-11T01:07:44;58.45;;;17.02;;
70247;SDS011;57641;51.416;5.506;2022-12-11T01:10:10;56.45;;;18.08;;
70247;SDS011;57641;51.416;5.506;2022-12-11T01:12:52;54.63;;;17.30;;
70247;SDS011;57641;51.416;5.506;2022-12-11T01:15:21;55.38;;;16.80;;
70247;SDS011;57641;51.416;5.506;2022-12-11T01:17:49;55.00;;;17.88;;
70247;SDS011;57641;51.416;5.506;2022-12-11T01:20:17;45.20;;;14.75;;
70247;SDS011;57641;51.416;5.506;2022-12-11T01:22:43;51.08;;;17.60;;
70247;SDS011;57641;51.416;5.506;2022-12-11T01:25:10;52.90;;;17.42;;
70247;SDS011;57641;51.416;5.506;2022-12-11T01:27:36;56.17;;;17.70;;
70247;SDS011;57641;51.416;5.506;2022-12-11T01:30:05;46.88;;;16.10;;
70247;SDS011;57641;51.416;5.506;2022-12-11T01:32:32;59.97;;;18.02;;
70247;SDS011;57641;51.416;5.506;2022-12-11T01:35:01;52.05;;;17.83;;
70247;SDS011;57641;51.416;5.506;2022-12-11T01:37:28;48.38;;;16.65;;
70247;SDS011;57641;51.416;5.506;2022-12-11T01:39:55;48.75;;;16.48;;
70247;SDS011;57641;51.416;5.506;2022-12-11T01:42:21;52.20;;;16.13;;
70247;SDS011;57641;51.416;5.506;2022-12-11T01:47:12;50.20;;;16.58;;
70247;SDS011;57641;51.416;5.506;2022-12-11T01:49:39;55.05;;;17.73;;
70247;SDS011;57641;51.416;5.506;2022-12-11T01:52:10;51.40;;;18.25;;
70247;SDS011;57641;51.416;5.506;2022-12-11T01:54:43;53.13;;;16.27;;
70247;SDS011;57641;51.416;5.506;2022-12-11T01:57:10;50.25;;;18.73;;
70247;SDS011;57641;51.416;5.506;2022-12-11T01:59:39;47.88;;;14.30;;
70247;SDS011;57641;51.416;5.506;2022-12-11T02:02:09;47.08;;;15.18;;
70247;SDS011;57641;51.416;5.506;2022-12-11T02:04:41;52.83;;;16.48;;
70247;SDS011;57641;51.416;5.506;2022-12-11T02:07:09;51.70;;;16.27;;
70247;SDS011;57641;51.416;5.506;2022-12-11T02:09:34;54.13;;;17.48;;
70247;SDS011;57641;51.416;5.506;2022-12-11T02:14:35;47.58;;;15.65;;
70247;SDS011;57641;51.416;5.506;2022-12-11T02:17:14;45.25;;;15.95;;
70247;SDS011;57641;51.416;5.506;2022-12-11T02:28:31;44.60;;;14.27;;
70247;SDS011;57641;51.416;5.506;2022-12-11T02:31:45;44.00;;;14.57;;
70247;SDS011;57641;51.416;5.506;2022-12-11T02:34:11;45.28;;;14.63;;
70247;SDS011;57641;51.416;5.506;2022-12-11T02:36:43;49.50;;;15.18;;
70247;SDS011;57641;51.416;5.506;2022-12-11T02:39:13;46.67;;;16.38;;
70247;SDS011;57641;51.416;5.506;2022-12-11T02:41:42;43.60;;;15.27;;
70247;SDS011;57641;51.416;5.506;2022-12-11T02:44:13;41.65;;;14.75;;
70247;SDS011;57641;51.416;5.506;2022-12-11T02:46:41;46.20;;;14.45;;
70247;SDS011;57641;51.416;5.506;2022-12-11T02:49:11;43.95;;;14.93;;
70247;SDS011;57641;51.416;5.506;2022-12-11T02:51:38;46.97;;;16.10;;
70247;SDS011;57641;51.416;5.506;2022-12-11T02:54:07;47.22;;;14.80;;
70247;SDS011;57641;51.416;5.506;2022-12-11T02:56:42;39.72;;;15.07;;
70247;SDS011;57641;51.416;5.506;2022-12-11T02:59:23;40.05;;;13.30;;
70247;SDS011;57641;51.416;5.506;2022-12-11T03:01:54;45.00;;;15.95;;
70247;SDS011;57641;51.416;5.506;2022-12-11T03:04:20;46.63;;;15.50;;
70247;SDS011;57641;51.416;5.506;2022-12-11T03:06:50;45.33;;;15.85;;
70247;SDS011;57641;51.416;5.506;2022-12-11T03:09:19;33.15;;;12.52;;
70247;SDS011;57641;51.416;5.506;2022-12-11T03:11:45;37.80;;;14.40;;
70247;SDS011;57641;51.416;5.506;2022-12-11T03:14:12;39.90;;;13.52;;
70247;SDS011;57641;51.416;5.506;2022-12-11T03:16:41;38.28;;;14.40;;
70247;SDS011;57641;51.416;5.506;2022-12-11T03:19:23;37.20;;;12.75;;
70247;SDS011;57641;51.416;5.506;2022-12-11T03:22:09;43.25;;;14.60;;
70247;SDS011;57641;51.416;5.506;2022-12-11T03:24:42;38.67;;;13.32;;
70247;SDS011;57641;51.416;5.506;2022-12-11T03:27:33;43.08;;;15.05;;
70247;SDS011;57641;51.416;5.506;2022-12-11T03:30:10;39.60;;;14.35;;
70247;SDS011;57641;51.416;5.506;2022-12-11T03:32:49;40.85;;;13.40;;
70247;SDS011;57641;51.416;5.506;2022-12-11T03:37:50;34.55;;;13.07;;
70247;SDS011;57641;51.416;5.506;2022-12-11T03:40:20;34.53;;;14.00;;
70247;SDS011;57641;51.416;5.506;2022-12-11T03:42:48;33.03;;;12.57;;
70247;SDS011;57641;51.416;5.506;2022-12-11T03:45:16;38.05;;;14.23;;
70247;SDS011;57641;51.416;5.506;2022-12-11T03:47:45;29.45;;;11.85;;
70247;SDS011;57641;51.416;5.506;2022-12-11T03:50:12;28.90;;;11.23;;
70247;SDS011;57641;51.416;5.506;2022-12-11T03:52:41;24.65;;;10.98;;
70247;SDS011;57641;51.416;5.506;2022-12-11T03:55:10;31.10;;;11.48;;
70247;SDS011;57641;51.416;5.506;2022-12-11T03:57:38;28.17;;;10.82;;
70247;SDS011;57641;51.416;5.506;2022-12-11T04:00:12;25.00;;;10.55;;
70247;SDS011;57641;51.416;5.506;2022-12-11T04:02:40;28.67;;;10.63;;
70247;SDS011;57641;51.416;5.506;2022-12-11T04:05:07;28.10;;;12.90;;
70247;SDS011;57641;51.416;5.506;2022-12-11T04:07:33;29.60;;;10.13;;
70247;SDS011;57641;51.416;5.506;2022-12-11T04:10:00;24.25;;;10.10;;
70247;SDS011;57641;51.416;5.506;2022-12-11T04:12:28;29.50;;;11.10;;
70247;SDS011;57641;51.416;5.506;2022-12-11T04:14:54;36.30;;;11.88;;
70247;SDS011;57641;51.416;5.506;2022-12-11T04:17:32;26.40;;;10.02;;
70247;SDS011;57641;51.416;5.506;2022-12-11T04:20:18;26.65;;;11.00;;
70247;SDS011;57641;51.416;5.506;2022-12-11T04:23:04;24.60;;;11.43;;
70247;SDS011;57641;51.416;5.506;2022-12-11T04:28:29;26.40;;;10.45;;
70247;SDS011;57641;51.416;5.506;2022-12-11T04:30:55;24.35;;;9.60;;
70247;SDS011;57641;51.416;5.506;2022-12-11T04:33:20;25.83;;;9.77;;
70247;SDS011;57641;51.416;5.506;2022-12-11T04:35:46;25.17;;;9.85;;
70247;SDS011;57641;51.416;5.506;2022-12-11T04:38:14;24.92;;;10.30;;
70247;SDS011;57641;51.416;5.506;2022-12-11T04:40:40;25.17;;;10.43;;
70247;SDS011;57641;51.416;5.506;2022-12-11T04:43:05;25.23;;;9.75;;
70247;SDS011;57641;51.416;5.506;2022-12-11T04:45:33;21.48;;;9.20;;
70247;SDS011;57641;51.416;5.506;2022-12-11T04:47:59;23.58;;;9.07;;
70247;SDS011;57641;51.416;5.506;2022-12-11T04:50:24;24.05;;;9.35;;
70247;SDS011;57641;51.416;5.506;2022-12-11T04:52:52;21.20;;;8.75;;
70247;SDS011;57641;51.416;5.506;2022-12-11T04:55:19;22.52;;;9.23;;
70247;SDS011;57641;51.416;5.506;2022-12-11T04:57:45;23.23;;;8.75;;
70247;SDS011;57641;51.416;5.506;2022-12-11T05:00:13;17.80;;;8.48;;
70247;SDS011;57641;51.416;5.506;2022-12-11T05:02:40;23.08;;;8.55;;
70247;SDS011;57641;51.416;5.506;2022-12-11T05:05:09;20.60;;;8.68;;
70247;SDS011;57641;51.416;5.506;2022-12-11T05:07:36;20.90;;;8.63;;
70247;SDS011;57641;51.416;5.506;2022-12-11T05:10:03;22.13;;;8.65;;
70247;SDS011;57641;51.416;5.506;2022-12-11T05:12:30;17.77;;;8.60;;
70247;SDS011;57641;51.416;5.506;2022-12-11T05:14:56;20.92;;;8.43;;
70247;SDS011;57641;51.416;5.506;2022-12-11T05:17:23;20.80;;;8.55;;
70247;SDS011;57641;51.416;5.506;2022-12-11T05:19:50;20.50;;;8.55;;
70247;SDS011;57641;51.416;5.506;2022-12-11T05:22:16;23.05;;;8.98;;
70247;SDS011;57641;51.416;5.506;2022-12-11T05:24:43;17.27;;;7.80;;
70247;SDS011;57641;51.416;5.506;2022-12-11T05:27:10;20.80;;;8.50;;
70247;SDS011;57641;51.416;5.506;2022-12-11T05:29:36;18.35;;;8.02;;
70247;SDS011;57641;51.416;5.506;2022-12-11T05:32:02;23.30;;;8.70;;
70247;SDS011;57641;51.416;5.506;2022-12-11T05:34:29;20.77;;;8.85;;
70247;SDS011;57641;51.416;5.506;2022-12-11T05:36:55;20.38;;;8.35;;
70247;SDS011;57641;51.416;5.506;2022-12-11T05:39:21;20.23;;;8.48;;
70247;SDS011;57641;51.416;5.506;2022-12-11T05:41:46;19.33;;;8.23;;
70247;SDS011;57641;51.416;5.506;2022-12-11T05:44:12;19.08;;;8.20;;
70247;SDS011;57641;51.416;5.506;2022-12-11T05:46:38;19.98;;;9.20;;
70247;SDS011;57641;51.416;5.506;2022-12-11T05:49:04;19.60;;;8.63;;
70247;SDS011;57641;51.416;5.506;2022-12-11T05:51:30;24.15;;;9.45;;
70247;SDS011;57641;51.416;5.506;2022-12-11T05:53:58;18.63;;;9.45;;
70247;SDS011;57641;51.416;5.506;2022-12-11T05:56:30;20.02;;;8.50;;
70247;SDS011;57641;51.416;5.506;2022-12-11T05:59:00;20.35;;;8.57;;
70247;SDS011;57641;51.416;5.506;2022-12-11T06:01:28;18.00;;;7.72;;
70247;SDS011;57641;51.416;5.506;2022-12-11T06:03:56;20.98;;;8.90;;
70247;SDS011;57641;51.416;5.506;2022-12-11T06:06:22;20.02;;;8.70;;
70247;SDS011;57641;51.416;5.506;2022-12-11T06:08:50;21.95;;;8.82;;
70247;SDS011;57641;51.416;5.506;2022-12-11T06:11:18;18.67;;;8.50;;
70247;SDS011;57641;51.416;5.506;2022-12-11T06:13:44;22.20;;;9.05;;
70247;SDS011;57641;51.416;5.506;2022-12-11T06:16:10;19.77;;;8.25;;
70247;SDS011;57641;51.416;5.506;2022-12-11T06:18:37;20.75;;;9.32;;
70247;SDS011;57641;51.416;5.506;2022-12-11T06:21:18;20.25;;;8.85;;
70247;SDS011;57641;51.416;5.506;2022-12-11T06:23:46;23.38;;;8.57;;
70247;SDS011;57641;51.416;5.506;2022-12-11T06:26:14;19.13;;;8.68;;
70247;SDS011;57641;51.416;5.506;2022-12-11T06:28:41;20.13;;;8.38;;
70247;SDS011;57641;51.416;5.506;2022-12-11T06:31:13;17.73;;;8.38;;
70247;SDS011;57641;51.416;5.506;2022-12-11T06:33:39;17.73;;;8.68;;
70247;SDS011;57641;51.416;5.506;2022-12-11T06:36:10;16.77;;;8.43;;
70247;SDS011;57641;51.416;5.506;2022-12-11T06:38:38;20.77;;;9.43;;
70247;SDS011;57641;51.416;5.506;2022-12-11T06:41:05;19.08;;;8.75;;
70247;SDS011;57641;51.416;5.506;2022-12-11T06:43:32;19.83;;;7.93;;
70247;SDS011;57641;51.416;5.506;2022-12-11T06:46:03;20.90;;;9.73;;
70247;SDS011;57641;51.416;5.506;2022-12-11T06:48:30;18.98;;;8.30;;
70247;SDS011;57641;51.416;5.506;2022-12-11T06:50:56;19.33;;;8.15;;
70247;SDS011;57641;51.416;5.506;2022-12-11T06:53:22;19.23;;;9.45;;
70247;SDS011;57641;51.416;5.506;2022-12-11T06:55:47;24.33;;;9.43;;
70247;SDS011;57641;51.416;5.506;2022-12-11T06:58:13;19.10;;;8.55;;
70247;SDS011;57641;51.416;5.506;2022-12-11T07:00:39;24.48;;;8.93;;
70247;SDS011;57641;51.416;5.506;2022-12-11T07:03:05;20.33;;;8.85;;
70247;SDS011;57641;51.416;5.506;2022-12-11T07:05:34;21.67;;;8.45;;
70247;SDS011;57641;51.416;5.506;2022-12-11T07:08:00;23.45;;;9.75;;
70247;SDS011;57641;51.416;5.506;2022-12-11T07:10:25;23.08;;;9.95;;
70247;SDS011;57641;51.416;5.506;2022-12-11T07:12:51;22.08;;;10.30;;
70247;SDS011;57641;51.416;5.506;2022-12-11T07:15:18;25.58;;;10.40;;
70247;SDS011;57641;51.416;5.506;2022-12-11T07:17:43;25.90;;;10.95;;
70247;SDS011;57641;51.416;5.506;2022-12-11T07:20:11;22.20;;;10.07;;
70247;SDS011;57641;51.416;5.506;2022-12-11T07:22:37;22.73;;;9.80;;
70247;SDS011;57641;51.416;5.506;2022-12-11T07:25:03;24.98;;;10.88;;
70247;SDS011;57641;51.416;5.506;2022-12-11T07:27:29;25.20;;;10.13;;
70247;SDS011;57641;51.416;5.506;2022-12-11T07:29:54;25.60;;;11.50;;
70247;SDS011;57641;51.416;5.506;2022-12-11T07:32:21;24.50;;;10.63;;
70247;SDS011;57641;51.416;5.506;2022-12-11T07:34:48;23.00;;;9.88;;
70247;SDS011;57641;51.416;5.506;2022-12-11T07:37:13;21.48;;;9.48;;
70247;SDS011;57641;51.416;5.506;2022-12-11T07:39:39;24.42;;;10.40;;
70247;SDS011;57641;51.416;5.506;2022-12-11T07:42:14;25.05;;;10.13;;
70247;SDS011;57641;51.416;5.506;2022-12-11T07:44:39;25.52;;;10.13;;
70247;SDS011;57641;51.416;5.506;2022-12-11T07:47:05;25.83;;;10.68;;
70247;SDS011;57641;51.416;5.506;2022-12-11T07:49:33;26.05;;;10.05;;
70247;SDS011;57641;51.416;5.506;2022-12-11T07:51:59;23.52;;;10.65;;
70247;SDS011;57641;51.416;5.506;2022-12-11T07:54:24;24.13;;;10.07;;
70247;SDS011;57641;51.416;5.506;2022-12-11T07:56:50;24.52;;;10.48;;
70247;SDS011;57641;51.416;5.506;2022-12-11T07:59:16;23.20;;;10.30;;
70247;SDS011;57641;51.416;5.506;2022-12-11T08:01:41;25.20;;;9.93;;
70247;SDS011;57641;51.416;5.506;2022-12-11T08:04:08;24.75;;;10.43;;
70247;SDS011;57641;51.416;5.506;2022-12-11T08:06:36;22.13;;;8.85;;
70247;SDS011;57641;51.416;5.506;2022-12-11T08:09:08;23.70;;;10.00;;
70247;SDS011;57641;51.416;5.506;2022-12-11T08:11:36;24.77;;;9.88;;
70247;SDS011;57641;51.416;5.506;2022-12-11T08:14:02;23.05;;;9.13;;
70247;SDS011;57641;51.416;5.506;2022-12-11T08:16:29;20.35;;;8.80;;
70247;SDS011;57641;51.416;5.506;2022-12-11T08:18:58;21.38;;;9.23;;
70247;SDS011;57641;51.416;5.506;2022-12-11T08:21:25;23.98;;;9.40;;
70247;SDS011;57641;51.416;5.506;2022-12-11T08:23:53;20.27;;;8.80;;
70247;SDS011;57641;51.416;5.506;2022-12-11T08:26:24;23.83;;;9.57;;
70247;SDS011;57641;51.416;5.506;2022-12-11T08:28:52;22.20;;;9.55;;
70247;SDS011;57641;51.416;5.506;2022-12-11T08:31:18;25.83;;;9.50;;
70247;SDS011;57641;51.416;5.506;2022-12-11T08:33:47;22.73;;;9.60;;
70247;SDS011;57641;51.416;5.506;2022-12-11T08:36:16;22.42;;;9.55;;
70247;SDS011;57641;51.416;5.506;2022-12-11T08:38:47;25.67;;;9.77;;
70247;SDS011;57641;51.416;5.506;2022-12-11T08:41:18;22.73;;;9.38;;
70247;SDS011;57641;51.416;5.506;2022-12-11T08:43:46;23.70;;;9.63;;
70247;SDS011;57641;51.416;5.506;2022-12-11T08:46:12;24.05;;;9.55;;
70247;SDS011;57641;51.416;5.506;2022-12-11T08:48:39;22.58;;;8.68;;
70247;SDS011;57641;51.416;5.506;2022-12-11T08:51:07;20.48;;;9.00;;
70247;SDS011;57641;51.416;5.506;2022-12-11T08:53:37;24.30;;;8.93;;
70247;SDS011;57641;51.416;5.506;2022-12-11T08:56:04;24.00;;;9.55;;
70247;SDS011;57641;51.416;5.506;2022-12-11T08:58:34;22.00;;;9.35;;
70247;SDS011;57641;51.416;5.506;2022-12-11T09:01:08;22.52;;;8.95;;
70247;SDS011;57641;51.416;5.506;2022-12-11T09:03:38;21.52;;;9.23;;
70247;SDS011;57641;51.416;5.506;2022-12-11T09:06:07;24.23;;;10.32;;
70247;SDS011;57641;51.416;5.506;2022-12-11T09:08:39;24.17;;;9.48;;
70247;SDS011;57641;51.416;5.506;2022-12-11T09:11:09;22.80;;;10.07;;
70247;SDS011;57641;51.416;5.506;2022-12-11T09:13:38;30.25;;;10.70;;
70247;SDS011;57641;51.416;5.506;2022-12-11T09:16:06;29.75;;;10.45;;
70247;SDS011;57641;51.416;5.506;2022-12-11T09:18:33;26.95;;;9.82;;
70247;SDS011;57641;51.416;5.506;2022-12-11T09:21:01;23.92;;;10.10;;
70247;SDS011;57641;51.416;5.506;2022-12-11T09:23:34;22.63;;;9.90;;
70247;SDS011;57641;51.416;5.506;2022-12-11T09:26:08;24.02;;;10.02;;
70247;SDS011;57641;51.416;5.506;2022-12-11T09:28:35;23.70;;;9.10;;
70247;SDS011;57641;51.416;5.506;2022-12-11T09:31:11;22.00;;;9.57;;
70247;SDS011;57641;51.416;5.506;2022-12-11T09:33:41;25.42;;;8.70;;
70247;SDS011;57641;51.416;5.506;2022-12-11T09:36:07;19.83;;;9.85;;
70247;SDS011;57641;51.416;5.506;2022-12-11T09:38:34;25.38;;;10.27;;
70247;SDS011;57641;51.416;5.506;2022-12-11T09:41:01;21.85;;;8.75;;
70247;SDS011;57641;51.416;5.506;2022-12-11T09:46:15;20.20;;;9.13;;
70247;SDS011;57641;51.416;5.506;2022-12-11T09:48:42;26.08;;;9.43;;
70247;SDS011;57641;51.416;5.506;2022-12-11T09:51:17;23.90;;;9.57;;
70247;SDS011;57641;51.416;5.506;2022-12-11T09:54:04;22.15;;;9.68;;
70247;SDS011;57641;51.416;5.506;2022-12-11T09:56:44;23.75;;;9.20;;
70247;SDS011;57641;51.416;5.506;2022-12-11T10:02:28;23.33;;;9.85;;
70247;SDS011;57641;51.416;5.506;2022-12-11T10:10:40;28.13;;;9.93;;
70247;SDS011;57641;51.416;5.506;2022-12-11T10:16:44;21.55;;;9.05;;
70247;SDS011;57641;51.416;5.506;2022-12-11T10:19:15;27.55;;;8.73;;
70247;SDS011;57641;51.416;5.506;2022-12-11T10:21:46;22.15;;;9.68;;
70247;SDS011;57641;51.416;5.506;2022-12-11T10:24:36;22.67;;;9.20;;
70247;SDS011;57641;51.416;5.506;2022-12-11T10:27:17;22.17;;;8.93;;
70247;SDS011;57641;51.416;5.506;2022-12-11T10:29:59;21.63;;;8.95;;
70247;SDS011;57641;51.416;5.506;2022-12-11T10:32:50;25.10;;;8.95;;
70247;SDS011;57641;51.416;5.506;2022-12-11T10:40:45;20.58;;;9.27;;
70247;SDS011;57641;51.416;5.506;2022-12-11T10:43:19;22.55;;;8.82;;
70247;SDS011;57641;51.416;5.506;2022-12-11T10:45:54;19.67;;;9.05;;
70247;SDS011;57641;51.416;5.506;2022-12-11T10:48:20;25.77;;;8.65;;
70247;SDS011;57641;51.416;5.506;2022-12-11T10:51:00;23.65;;;8.40;;
70247;SDS011;57641;51.416;5.506;2022-12-11T10:53:29;22.35;;;9.18;;
70247;SDS011;57641;51.416;5.506;2022-12-11T10:55:56;19.80;;;7.85;;
70247;SDS011;57641;51.416;5.506;2022-12-11T10:58:24;21.00;;;8.65;;
70247;SDS011;57641;51.416;5.506;2022-12-11T11:03:33;23.30;;;8.85;;
70247;SDS011;57641;51.416;5.506;2022-12-11T11:11:22;20.55;;;8.35;;
70247;SDS011;57641;51.416;5.506;2022-12-11T11:14:05;21.02;;;8.70;;
70247;SDS011;57641;51.416;5.506;2022-12-11T11:16:36;22.67;;;8.32;;
70247;SDS011;57641;51.416;5.506;2022-12-11T11:19:04;15.02;;;6.95;;
70247;SDS011;57641;51.416;5.506;2022-12-11T11:21:31;17.52;;;7.68;;
70247;SDS011;57641;51.416;5.506;2022-12-11T11:23:59;17.25;;;7.25;;
70247;SDS011;57641;51.416;5.506;2022-12-11T11:26:25;22.30;;;9.50;;
70247;SDS011;57641;51.416;5.506;2022-12-11T11:28:52;19.90;;;8.57;;
70247;SDS011;57641;51.416;5.506;2022-12-11T11:31:21;24.55;;;9.27;;
70247;SDS011;57641;51.416;5.506;2022-12-11T11:34:00;25.10;;;9.57;;
70247;SDS011;57641;51.416;5.506;2022-12-11T11:36:31;24.75;;;9.45;;
70247;SDS011;57641;51.416;5.506;2022-12-11T11:44:39;19.55;;;8.73;;
70247;SDS011;57641;51.416;5.506;2022-12-11T11:47:29;19.23;;;8.52;;
70247;SDS011;57641;51.416;5.506;2022-12-11T11:50:06;22.20;;;8.98;;
70247;SDS011;57641;51.416;5.506;2022-12-11T11:52:43;27.13;;;8.85;;
70247;SDS011;57641;51.416;5.506;2022-12-11T11:55:16;20.25;;;8.38;;
70247;SDS011;57641;51.416;5.506;2022-12-11T11:58:01;19.00;;;8.52;;
70247;SDS011;57641;51.416;5.506;2022-12-11T12:00:35;22.42;;;9.15;;
70247;SDS011;57641;51.416;5.506;2022-12-11T12:05:48;19.70;;;9.23;;
70247;SDS011;57641;51.416;5.506;2022-12-11T12:16:06;20.15;;;8.80;;
70247;SDS011;57641;51.416;5.506;2022-12-11T12:18:49;18.33;;;7.85;;
70247;SDS011;57641;51.416;5.506;2022-12-11T12:21:33;18.77;;;7.72;;
70247;SDS011;57641;51.416;5.506;2022-12-11T12:24:10;23.88;;;9.50;;
70247;SDS011;57641;51.416;5.506;2022-12-11T12:26:41;18.92;;;9.02;;
70247;SDS011;57641;51.416;5.506;2022-12-11T12:34:48;20.65;;;8.32;;
70247;SDS011;57641;51.416;5.506;2022-12-11T12:49:11;18.27;;;7.85;;
70247;SDS011;57641;51.416;5.506;2022-12-11T12:51:45;19.67;;;8.25;;
70247;SDS011;57641;51.416;5.506;2022-12-11T12:54:13;16.45;;;7.70;;
70247;SDS011;57641;51.416;5.506;2022-12-11T12:56:41;17.25;;;8.10;;
70247;SDS011;57641;51.416;5.506;2022-12-11T12:59:21;16.45;;;6.88;;
70247;SDS011;57641;51.416;5.506;2022-12-11T13:01:49;18.58;;;8.05;;
70247;SDS011;57641;51.416;5.506;2022-12-11T13:04:33;16.10;;;7.65;;
70247;SDS011;57641;51.416;5.506;2022-12-11T13:07:21;16.67;;;7.57;;
70247;SDS011;57641;51.416;5.506;2022-12-11T13:12:47;17.33;;;7.95;;
70247;SDS011;57641;51.416;5.506;2022-12-11T13:18:31;16.40;;;7.80;;
70247;SDS011;57641;51.416;5.506;2022-12-11T13:21:00;16.75;;;7.97;;
70247;SDS011;57641;51.416;5.506;2022-12-11T13:23:29;17.80;;;7.88;;
70247;SDS011;57641;51.416;5.506;2022-12-11T13:25:57;18.23;;;7.90;;
70247;SDS011;57641;51.416;5.506;2022-12-11T13:33:40;19.00;;;8.77;;
70247;SDS011;57641;51.416;5.506;2022-12-11T13:38:45;16.75;;;7.78;;
70247;SDS011;57641;51.416;5.506;2022-12-11T13:41:14;16.48;;;7.57;;
70247;SDS011;57641;51.416;5.506;2022-12-11T13:43:43;23.98;;;8.80;;
70247;SDS011;57641;51.416;5.506;2022-12-11T13:46:11;19.48;;;7.93;;
70247;SDS011;57641;51.416;5.506;2022-12-11T13:48:49;20.50;;;8.93;;
70247;SDS011;57641;51.416;5.506;2022-12-11T13:51:24;15.88;;;7.57;;
70247;SDS011;57641;51.416;5.506;2022-12-11T13:56:54;15.98;;;7.55;;
70247;SDS011;57641;51.416;5.506;2022-12-11T13:59:23;18.70;;;8.45;;
70247;SDS011;57641;51.416;5.506;2022-12-11T14:01:53;19.35;;;7.90;;
70247;SDS011;57641;51.416;5.506;2022-12-11T14:04:21;14.38;;;7.30;;
70247;SDS011;57641;51.416;5.506;2022-12-11T14:06:47;17.02;;;8.25;;
70247;SDS011;57641;51.416;5.506;2022-12-11T14:09:15;17.40;;;7.25;;
70247;SDS011;57641;51.416;5.506;2022-12-11T14:11:46;16.52;;;8.10;;
70247;SDS011;57641;51.416;5.506;2022-12-11T14:14:19;18.80;;;7.65;;
70247;SDS011;57641;51.416;5.506;2022-12-11T14:16:53;15.18;;;7.35;;
70247;SDS011;57641;51.416;5.506;2022-12-11T14:19:20;15.63;;;8.25;;
70247;SDS011;57641;51.416;5.506;2022-12-11T14:21:59;14.65;;;7.05;;
70247;SDS011;57641;51.416;5.506;2022-12-11T14:24:28;14.93;;;7.40;;
70247;SDS011;57641;51.416;5.506;2022-12-11T14:26:56;15.82;;;7.20;;
70247;SDS011;57641;51.416;5.506;2022-12-11T14:29:27;16.48;;;7.90;;
70247;SDS011;57641;51.416;5.506;2022-12-11T14:31:55;14.90;;;7.75;;
70247;SDS011;57641;51.416;5.506;2022-12-11T14:34:30;13.50;;;7.00;;
70247;SDS011;57641;51.416;5.506;2022-12-11T14:36:59;15.70;;;7.55;;
70247;SDS011;57641;51.416;5.506;2022-12-11T14:39:37;13.60;;;6.63;;
70247;SDS011;57641;51.416;5.506;2022-12-11T14:42:10;15.32;;;7.03;;
70247;SDS011;57641;51.416;5.506;2022-12-11T14:44:49;11.75;;;7.25;;
70247;SDS011;57641;51.416;5.506;2022-12-11T14:47:24;16.95;;;7.55;;
70247;SDS011;57641;51.416;5.506;2022-12-11T14:49:58;15.40;;;7.32;;
70247;SDS011;57641;51.416;5.506;2022-12-11T14:55:41;13.60;;;7.18;;
70247;SDS011;57641;51.416;5.506;2022-12-11T15:01:23;18.08;;;7.50;;
70247;SDS011;57641;51.416;5.506;2022-12-11T15:04:14;16.40;;;7.78;;
70247;SDS011;57641;51.416;5.506;2022-12-11T15:06:48;18.88;;;8.32;;
70247;SDS011;57641;51.416;5.506;2022-12-11T15:09:33;14.65;;;7.82;;
70247;SDS011;57641;51.416;5.506;2022-12-11T15:12:15;14.75;;;7.45;;
70247;SDS011;57641;51.416;5.506;2022-12-11T15:14:48;18.60;;;7.60;;
70247;SDS011;57641;51.416;5.506;2022-12-11T15:17:25;15.35;;;7.75;;
70247;SDS011;57641;51.416;5.506;2022-12-11T15:19:58;14.63;;;7.65;;
70247;SDS011;57641;51.416;5.506;2022-12-11T15:22:30;14.00;;;7.35;;
70247;SDS011;57641;51.416;5.506;2022-12-11T15:24:57;17.00;;;7.93;;
70247;SDS011;57641;51.416;5.506;2022-12-11T15:30:01;15.82;;;7.97;;
70247;SDS011;57641;51.416;5.506;2022-12-11T15:32:42;18.42;;;7.65;;
70247;SDS011;57641;51.416;5.506;2022-12-11T15:35:26;13.95;;;7.25;;
70247;SDS011;57641;51.416;5.506;2022-12-11T15:37:53;19.50;;;7.80;;
70247;SDS011;57641;51.416;5.506;2022-12-11T15:40:23;13.68;;;7.38;;
70247;SDS011;57641;51.416;5.506;2022-12-11T15:42:50;17.73;;;7.80;;
70247;SDS011;57641;51.416;5.506;2022-12-11T15:45:17;14.07;;;8.10;;
70247;SDS011;57641;51.416;5.506;2022-12-11T15:48:08;16.90;;;7.60;;
70247;SDS011;57641;51.416;5.506;2022-12-11T15:50:35;14.90;;;7.85;;
70247;SDS011;57641;51.416;5.506;2022-12-11T15:53:01;19.55;;;8.00;;
70247;SDS011;57641;51.416;5.506;2022-12-11T15:55:27;16.40;;;8.18;;
70247;SDS011;57641;51.416;5.506;2022-12-11T15:58:03;11.85;;;6.70;;
70247;SDS011;57641;51.416;5.506;2022-12-11T16:00:33;14.52;;;7.78;;
70247;SDS011;57641;51.416;5.506;2022-12-11T16:03:02;14.73;;;7.40;;
70247;SDS011;57641;51.416;5.506;2022-12-11T16:05:28;15.43;;;7.32;;
70247;SDS011;57641;51.416;5.506;2022-12-11T16:07:54;14.65;;;7.15;;
70247;SDS011;57641;51.416;5.506;2022-12-11T16:10:23;16.38;;;7.60;;
70247;SDS011;57641;51.416;5.506;2022-12-11T16:13:02;18.48;;;9.80;;
70247;SDS011;57641;51.416;5.506;2022-12-11T16:15:31;17.02;;;8.32;;
70247;SDS011;57641;51.416;5.506;2022-12-11T16:18:07;15.27;;;7.88;;
70247;SDS011;57641;51.416;5.506;2022-12-11T16:20:35;12.73;;;6.80;;
70247;SDS011;57641;51.416;5.506;2022-12-11T16:23:02;18.30;;;8.32;;
70247;SDS011;57641;51.416;5.506;2022-12-11T16:25:29;16.52;;;8.27;;
70247;SDS011;57641;51.416;5.506;2022-12-11T16:27:59;17.73;;;8.93;;
70247;SDS011;57641;51.416;5.506;2022-12-11T16:30:27;14.10;;;7.50;;
70247;SDS011;57641;51.416;5.506;2022-12-11T16:33:03;27.70;;;13.52;;
70247;SDS011;57641;51.416;5.506;2022-12-11T16:35:30;18.38;;;9.63;;